createdAt,value
2023-01-20T00:00:01.802Z,1.92
2023-01-20T00:01:01.938Z,1.95
2023-01-20T00:02:02.276Z,1.98
2023-01-20T00:03:01.881Z,2.01
2023-01-20T00:04:02.432Z,2.03
2023-01-20T00:05:01.803Z,2.06
2023-01-20T00:06:02.242Z,2.08
2023-01-20T00:07:02.354Z,2.09
2023-01-20T00:08:02.752Z,2.12
2023-01-20T00:09:02.410Z,2.14
2023-01-20T00:10:02.565Z,2.14
2023-01-20T00:11:02.729Z,2.15
2023-01-20T00:12:03.247Z,2.16
2023-01-20T00:13:02.502Z,2.16
2023-01-20T00:14:02.762Z,2.16
2023-01-20T00:15:02.908Z,2.16
2023-01-20T00:16:03.104Z,2.15
2023-01-20T00:17:01.867Z,2.13
2023-01-20T00:18:01.712Z,2.11
2023-01-20T00:19:01.658Z,2.12
2023-01-20T00:20:02.105Z,2.12
2023-01-20T00:21:01.571Z,2.14
2023-01-20T00:22:02.582Z,2.16
2023-01-20T00:23:02.303Z,2.15
2023-01-20T00:24:02.537Z,2.15
2023-01-20T00:25:02.666Z,2.14
2023-01-20T00:26:02.120Z,2.13
2023-01-20T00:27:02.150Z,2.14
2023-01-20T00:28:02.039Z,2.17
2023-01-20T00:29:02.055Z,2.20
2023-01-20T00:30:02.196Z,2.23
2023-01-20T00:31:01.592Z,2.26
2023-01-20T00:32:02.760Z,2.27
2023-01-20T00:33:02.167Z,2.28
2023-01-20T00:34:02.063Z,2.29
2023-01-20T00:35:02.441Z,2.30
2023-01-20T00:36:02.219Z,2.32
2023-01-20T00:37:01.777Z,2.32
2023-01-20T00:38:02.239Z,2.35
2023-01-20T00:39:01.701Z,2.38
2023-01-20T00:40:02.552Z,2.33
2023-01-20T00:41:02.018Z,2.35
2023-01-20T00:42:02.301Z,2.37
2023-01-20T00:43:02.097Z,2.36
2023-01-20T00:44:02.106Z,2.36
2023-01-20T00:45:01.782Z,2.36
2023-01-20T00:46:02.112Z,2.37
2023-01-20T00:47:01.847Z,2.39
2023-01-20T00:48:02.175Z,2.37
2023-01-20T00:49:01.840Z,2.37
2023-01-20T00:50:02.130Z,2.37
2023-01-20T00:51:02.120Z,2.34
2023-01-20T00:52:02.410Z,2.32
2023-01-20T00:53:02.197Z,2.30
2023-01-20T00:54:02.430Z,2.29
2023-01-20T00:55:02.304Z,2.27
2023-01-20T00:56:02.054Z,2.26
2023-01-20T00:57:01.593Z,2.21
2023-01-20T00:58:01.602Z,2.20
2023-01-20T00:59:01.983Z,2.19
2023-01-20T01:00:01.839Z,2.19
2023-01-20T01:01:01.858Z,2.18
2023-01-20T01:02:03.157Z,2.17
2023-01-20T01:03:02.544Z,2.17
2023-01-20T01:04:02.845Z,2.17
2023-01-20T01:05:02.665Z,2.13
2023-01-20T01:06:03.189Z,2.13
2023-01-20T01:07:01.660Z,2.12
2023-01-20T01:08:02.192Z,2.10
2023-01-20T01:09:01.655Z,2.08
2023-01-20T01:10:01.998Z,2.07
2023-01-20T01:11:01.653Z,2.05
2023-01-20T01:12:01.982Z,2.05
2023-01-20T01:13:02.023Z,2.03
2023-01-20T01:14:02.240Z,2.01
2023-01-20T01:15:02.567Z,2.03
2023-01-20T01:16:02.300Z,2.04
2023-01-20T01:17:02.288Z,2.07
2023-01-20T01:18:02.104Z,2.10
2023-01-20T01:19:02.357Z,2.12
2023-01-20T01:20:02.319Z,2.14
2023-01-20T01:21:02.345Z,2.18
2023-01-20T01:22:02.621Z,2.18
2023-01-20T01:23:02.222Z,2.18
2023-01-20T01:24:01.963Z,2.18
2023-01-20T01:25:02.670Z,2.18
2023-01-20T01:26:02.093Z,2.20
2023-01-20T01:27:02.418Z,2.20
2023-01-20T01:28:02.378Z,2.20
2023-01-20T01:29:02.807Z,2.23
2023-01-20T01:30:02.275Z,2.22
2023-01-20T01:31:02.338Z,2.23
2023-01-20T01:32:01.648Z,2.26
2023-01-20T01:33:02.031Z,2.29
2023-01-20T01:34:01.751Z,2.33
2023-01-20T01:35:02.112Z,2.37
2023-01-20T01:36:01.828Z,2.40
2023-01-20T01:37:02.396Z,2.42
2023-01-20T01:38:02.172Z,2.46
2023-01-20T01:39:02.571Z,2.48
2023-01-20T01:40:02.069Z,2.48
2023-01-20T01:41:02.094Z,2.47
2023-01-20T01:42:02.940Z,2.46
2023-01-20T01:43:02.974Z,2.45
2023-01-20T01:44:02.398Z,2.46
2023-01-20T01:45:02.812Z,2.48
2023-01-20T01:46:02.563Z,2.47
2023-01-20T01:47:02.144Z,2.48
2023-01-20T01:48:01.885Z,2.48
2023-01-20T01:49:02.280Z,2.48
2023-01-20T01:50:02.554Z,2.47
2023-01-20T01:51:02.045Z,2.46
2023-01-20T01:52:02.422Z,2.46
2023-01-20T01:53:02.734Z,2.46
2023-01-20T01:54:02.410Z,2.44
2023-01-20T01:55:02.394Z,2.41
2023-01-20T01:56:02.814Z,2.37
2023-01-20T01:57:02.204Z,2.33
2023-01-20T01:58:02.299Z,2.30
2023-01-20T01:59:02.199Z,2.29
2023-01-20T02:00:02.580Z,2.30
2023-01-20T02:01:02.020Z,2.30
2023-01-20T02:02:03.371Z,2.26
2023-01-20T02:03:03.489Z,2.27
2023-01-20T02:04:03.504Z,2.27
2023-01-20T02:05:03.708Z,2.30
2023-01-20T02:06:03.413Z,2.33
2023-01-20T02:07:03.337Z,2.35
2023-01-20T02:08:02.822Z,2.38
2023-01-20T02:09:02.759Z,2.41
2023-01-20T02:10:03.250Z,2.43
2023-01-20T02:11:03.261Z,2.44
2023-01-20T02:12:03.841Z,2.44
2023-01-20T02:13:03.247Z,2.43
2023-01-20T02:14:03.646Z,2.41
2023-01-20T02:15:03.660Z,2.37
2023-01-20T02:16:03.448Z,2.33
2023-01-20T02:17:02.894Z,2.31
2023-01-20T02:18:02.965Z,2.26
2023-01-20T02:19:03.024Z,2.24
2023-01-20T02:20:02.801Z,2.25
2023-01-20T02:21:02.675Z,2.27
2023-01-20T02:22:02.837Z,2.27
2023-01-20T02:23:03.176Z,2.27
2023-01-20T02:24:02.963Z,2.27
2023-01-20T02:25:02.855Z,2.28
2023-01-20T02:26:03.242Z,2.27
2023-01-20T02:27:02.688Z,2.26
2023-01-20T02:28:02.518Z,2.25
2023-01-20T02:29:02.291Z,2.25
2023-01-20T02:30:02.452Z,2.26
2023-01-20T02:31:02.569Z,2.26
2023-01-20T02:32:02.989Z,2.27
2023-01-20T02:33:03.041Z,2.27
2023-01-20T02:34:02.753Z,2.26
2023-01-20T02:35:02.764Z,2.25
2023-01-20T02:36:03.224Z,2.24
2023-01-20T02:37:03.409Z,2.23
2023-01-20T02:38:03.091Z,2.18
2023-01-20T02:39:03.582Z,2.15
2023-01-20T02:40:03.136Z,2.15
2023-01-20T02:41:03.171Z,2.17
2023-01-20T02:42:02.530Z,2.17
2023-01-20T02:43:02.219Z,2.18
2023-01-20T02:44:02.227Z,2.18
2023-01-20T02:45:02.489Z,2.19
2023-01-20T02:46:02.300Z,2.20
2023-01-20T02:47:03.195Z,2.18
2023-01-20T02:48:02.594Z,2.16
2023-01-20T02:49:02.302Z,2.11
2023-01-20T02:50:02.431Z,2.10
2023-01-20T02:51:02.782Z,2.10
2023-01-20T02:52:02.485Z,2.08
2023-01-20T02:53:02.962Z,2.06
2023-01-20T02:54:02.774Z,2.04
2023-01-20T02:55:03.076Z,2.02
2023-01-20T02:56:02.552Z,1.98
2023-01-20T02:57:02.512Z,1.94
2023-01-20T02:58:02.211Z,1.89
2023-01-20T02:59:02.631Z,1.91
2023-01-20T03:00:02.016Z,1.96
2023-01-20T03:01:02.442Z,1.97
2023-01-20T03:02:03.056Z,2.00
2023-01-20T03:03:02.478Z,2.01
2023-01-20T03:04:02.747Z,2.00
2023-01-20T03:05:02.352Z,1.98
2023-01-20T03:06:02.764Z,1.99
2023-01-20T03:07:03.092Z,1.97
2023-01-20T03:08:03.153Z,1.96
2023-01-20T03:09:03.165Z,1.94
2023-01-20T03:10:02.664Z,1.93
2023-01-20T03:11:03.180Z,1.89
2023-01-20T03:12:02.346Z,1.90
2023-01-20T03:13:01.977Z,1.93
2023-01-20T03:14:02.192Z,1.90
2023-01-20T03:15:01.791Z,1.92
2023-01-20T03:16:01.944Z,1.93
2023-01-20T03:17:02.924Z,1.96
2023-01-20T03:18:02.548Z,1.97
2023-01-20T03:19:02.955Z,1.99
2023-01-20T03:20:02.597Z,2.00
2023-01-20T03:21:02.396Z,2.01
2023-01-20T03:22:02.494Z,2.01
2023-01-20T03:23:02.383Z,2.01
2023-01-20T03:24:02.484Z,1.99
2023-01-20T03:25:01.973Z,2.01
2023-01-20T03:26:02.415Z,2.03
2023-01-20T03:27:02.400Z,2.03
2023-01-20T03:28:02.175Z,2.05
2023-01-20T03:29:02.372Z,2.06
2023-01-20T03:30:02.271Z,2.08
2023-01-20T03:31:02.536Z,2.04
2023-01-20T03:32:02.829Z,2.04
2023-01-20T03:33:02.823Z,2.05
2023-01-20T03:34:02.187Z,2.05
2023-01-20T03:35:02.467Z,2.06
2023-01-20T03:36:02.258Z,2.04
2023-01-20T03:37:02.903Z,1.94
2023-01-20T03:38:02.371Z,1.88
2023-01-20T03:39:02.342Z,1.85
2023-01-20T03:40:02.911Z,1.82
2023-01-20T03:41:02.713Z,1.81
2023-01-20T03:42:02.594Z,1.83
2023-01-20T03:43:03.147Z,1.87
2023-01-20T03:44:02.657Z,1.91
2023-01-20T03:45:03.075Z,1.93
2023-01-20T03:46:02.516Z,1.92
2023-01-20T03:47:02.524Z,1.92
2023-01-20T03:48:02.060Z,1.93
2023-01-20T03:49:02.062Z,1.96
2023-01-20T03:50:02.438Z,1.98
2023-01-20T03:51:02.117Z,2.00
2023-01-20T03:52:02.456Z,2.03
2023-01-20T03:53:02.542Z,2.05
2023-01-20T03:54:02.610Z,2.08
2023-01-20T03:55:02.476Z,2.10
2023-01-20T03:56:02.969Z,2.08
2023-01-20T03:57:02.764Z,2.07
2023-01-20T03:58:02.572Z,2.05
2023-01-20T03:59:02.860Z,2.03
2023-01-20T04:00:02.862Z,2.03
2023-01-20T04:01:02.689Z,2.05
2023-01-20T04:02:02.209Z,2.06
2023-01-20T04:03:02.010Z,2.07
2023-01-20T04:04:02.113Z,2.10
2023-01-20T04:05:02.493Z,2.12
2023-01-20T04:06:01.906Z,2.17
2023-01-20T04:07:02.285Z,2.21
2023-01-20T04:08:02.431Z,2.24
2023-01-20T04:09:02.904Z,2.25
2023-01-20T04:10:02.415Z,2.26
2023-01-20T04:11:02.703Z,2.29
2023-01-20T04:12:02.417Z,2.29
2023-01-20T04:13:03.012Z,2.28
2023-01-20T04:14:02.886Z,2.29
2023-01-20T04:15:02.654Z,2.31
2023-01-20T04:16:02.481Z,2.31
2023-01-20T04:17:02.487Z,2.33
2023-01-20T04:18:02.702Z,2.33
2023-01-20T04:19:02.933Z,2.33
2023-01-20T04:20:02.978Z,2.34
2023-01-20T04:21:02.652Z,2.33
2023-01-20T04:22:02.278Z,2.32
2023-01-20T04:23:02.472Z,2.33
2023-01-20T04:24:02.138Z,2.33
2023-01-20T04:25:01.970Z,2.31
2023-01-20T04:26:02.333Z,2.33
2023-01-20T04:27:01.945Z,2.36
2023-01-20T04:28:02.160Z,2.39
2023-01-20T04:29:01.651Z,2.42
2023-01-20T04:30:02.123Z,2.43
2023-01-20T04:31:01.929Z,2.46
2023-01-20T04:32:02.423Z,2.48
2023-01-20T04:33:02.514Z,2.50
2023-01-20T04:34:02.151Z,2.51
2023-01-20T04:35:02.504Z,2.50
2023-01-20T04:36:02.330Z,2.52
2023-01-20T04:37:01.767Z,2.52
2023-01-20T04:38:02.037Z,2.51
2023-01-20T04:39:02.124Z,2.54
2023-01-20T04:40:01.589Z,2.53
2023-01-20T04:41:03.633Z,2.52
2023-01-20T04:42:02.068Z,2.50
2023-01-20T04:43:02.462Z,2.50
2023-01-20T04:44:02.343Z,2.46
2023-01-20T04:45:02.700Z,2.45
2023-01-20T04:46:02.197Z,2.44
2023-01-20T04:47:02.313Z,2.42
2023-01-20T04:48:02.298Z,2.43
2023-01-20T04:49:02.697Z,2.39
2023-01-20T04:50:02.383Z,2.38
2023-01-20T04:51:02.158Z,2.37
2023-01-20T04:52:01.437Z,2.37
2023-01-20T04:53:01.486Z,2.34
2023-01-20T04:54:01.906Z,2.33
2023-01-20T04:55:01.644Z,2.31
2023-01-20T04:56:01.977Z,2.29
2023-01-20T04:57:01.942Z,2.28
2023-01-20T04:58:01.712Z,2.28
2023-01-20T04:59:01.929Z,2.26
2023-01-20T05:00:02.023Z,2.23
2023-01-20T05:01:02.107Z,2.16
2023-01-20T05:02:02.299Z,2.11
2023-01-20T05:03:02.315Z,2.08
2023-01-20T05:04:02.456Z,2.05
2023-01-20T05:05:02.427Z,2.05
2023-01-20T05:06:02.390Z,2.04
2023-01-20T05:07:02.361Z,2.04
2023-01-20T05:08:02.337Z,2.02
2023-01-20T05:09:02.724Z,2.01
2023-01-20T05:10:02.727Z,2.01
2023-01-20T05:11:02.545Z,1.99
2023-01-20T05:12:02.156Z,1.97
2023-01-20T05:13:02.362Z,1.95
2023-01-20T05:14:02.474Z,1.94
2023-01-20T05:15:02.123Z,1.92
2023-01-20T05:16:03.239Z,1.86
2023-01-20T05:17:02.823Z,1.84
2023-01-20T05:18:02.529Z,1.80
2023-01-20T05:19:02.904Z,1.74
2023-01-20T05:20:02.883Z,1.67
2023-01-20T05:21:02.587Z,1.61
2023-01-20T05:22:03.101Z,1.56
2023-01-20T05:23:03.141Z,1.49
2023-01-20T05:24:02.793Z,1.44
2023-01-20T05:25:02.861Z,1.35
2023-01-20T05:26:02.840Z,1.31
2023-01-20T05:27:02.313Z,1.23
2023-01-20T05:28:02.175Z,1.22
2023-01-20T05:29:02.459Z,1.18
2023-01-20T05:30:01.969Z,1.12
2023-01-20T05:31:02.283Z,1.09
2023-01-20T05:32:02.372Z,1.08
2023-01-20T05:33:02.319Z,1.06
2023-01-20T05:34:02.813Z,1.06
2023-01-20T05:35:02.203Z,1.05
2023-01-20T05:36:02.525Z,1.02
2023-01-20T05:37:02.952Z,0.97
2023-01-20T05:38:02.987Z,0.92
2023-01-20T05:39:02.608Z,0.90
2023-01-20T05:40:02.948Z,0.88
2023-01-20T05:41:03.025Z,0.86
2023-01-20T05:42:02.494Z,0.85
2023-01-20T05:43:02.479Z,0.83
2023-01-20T05:44:02.493Z,0.80
2023-01-20T05:45:02.182Z,0.77
2023-01-20T05:46:02.667Z,0.77
2023-01-20T05:47:02.100Z,0.74
2023-01-20T05:48:02.376Z,0.72
2023-01-20T05:49:02.107Z,0.71
2023-01-20T05:50:02.436Z,0.70
2023-01-20T05:51:02.214Z,0.65
2023-01-20T05:52:02.730Z,0.64
2023-01-20T05:53:02.735Z,0.64
2023-01-20T05:54:02.275Z,0.62
2023-01-20T05:55:02.577Z,0.61
2023-01-20T05:56:02.349Z,0.60
2023-01-20T05:57:02.099Z,0.59
2023-01-20T05:58:02.068Z,0.61
2023-01-20T05:59:01.754Z,0.60
2023-01-20T06:00:02.122Z,0.60
2023-01-20T06:01:02.235Z,0.61
2023-01-20T06:02:02.876Z,0.61
2023-01-20T06:03:03.485Z,0.60
2023-01-20T06:04:02.949Z,0.63
2023-01-20T06:05:03.135Z,0.63
2023-01-20T06:06:02.730Z,0.63
2023-01-20T06:07:03.024Z,0.67
2023-01-20T06:08:02.993Z,0.71
2023-01-20T06:09:02.958Z,0.74
2023-01-20T06:10:03.051Z,0.78
2023-01-20T06:11:02.635Z,0.80
2023-01-20T06:12:03.631Z,0.84
2023-01-20T06:13:03.675Z,0.89
2023-01-20T06:14:02.991Z,0.93
2023-01-20T06:15:03.361Z,0.98
2023-01-20T06:16:05.657Z,1.02
2023-01-20T06:17:03.686Z,1.06
2023-01-20T06:18:03.364Z,1.07
2023-01-20T06:19:03.327Z,1.08
2023-01-20T06:20:03.322Z,1.11
2023-01-20T06:21:03.539Z,1.15
2023-01-20T06:22:02.995Z,1.21
2023-01-20T06:23:02.747Z,1.24
2023-01-20T06:24:03.216Z,1.30
2023-01-20T06:25:02.595Z,1.35
2023-01-20T06:26:03.108Z,1.37
2023-01-20T06:27:03.124Z,1.40
2023-01-20T06:28:03.527Z,1.43
2023-01-20T06:29:03.107Z,1.45
2023-01-20T06:30:03.463Z,1.39
2023-01-20T06:31:03.191Z,1.44
2023-01-20T06:32:02.574Z,1.41
2023-01-20T06:33:02.340Z,1.36
2023-01-20T06:34:02.782Z,1.40
2023-01-20T06:35:02.331Z,1.39
2023-01-20T06:36:02.741Z,1.41
2023-01-20T06:37:02.895Z,1.44
2023-01-20T06:38:02.917Z,1.46
2023-01-20T06:39:02.396Z,1.47
2023-01-20T06:40:02.470Z,1.48
2023-01-20T06:41:02.875Z,1.50
2023-01-20T06:42:03.271Z,1.49
2023-01-20T06:43:02.856Z,1.45
2023-01-20T06:44:03.299Z,1.44
2023-01-20T06:45:03.043Z,1.45
2023-01-20T06:46:02.748Z,1.50
2023-01-20T06:47:02.562Z,1.53
2023-01-20T06:48:02.324Z,1.49
2023-01-20T06:49:02.865Z,1.52
2023-01-20T06:50:02.903Z,1.55
2023-01-20T06:51:02.672Z,1.53
2023-01-20T06:52:02.520Z,1.56
2023-01-20T06:53:02.960Z,1.56
2023-01-20T06:54:02.773Z,1.57
2023-01-20T06:55:02.878Z,1.57
2023-01-20T06:56:02.641Z,1.48
2023-01-20T06:57:03.209Z,1.50
2023-01-20T06:58:02.639Z,1.52
2023-01-20T06:59:03.152Z,1.53
2023-01-20T07:00:02.626Z,1.54
2023-01-20T07:01:03.363Z,1.48
2023-01-20T07:02:03.820Z,1.51
2023-01-20T07:03:03.560Z,1.52
2023-01-20T07:04:03.708Z,1.54
2023-01-20T07:05:03.572Z,1.54
2023-01-20T07:06:03.611Z,1.55
2023-01-20T07:07:03.166Z,1.57
2023-01-20T07:08:02.889Z,1.59
2023-01-20T07:09:02.982Z,1.59
2023-01-20T07:10:02.719Z,1.63
2023-01-20T07:11:03.238Z,1.56
2023-01-20T07:12:03.153Z,1.57
2023-01-20T07:13:03.625Z,1.56
2023-01-20T07:14:03.114Z,1.53
2023-01-20T07:15:03.562Z,1.52
2023-01-20T07:16:03.483Z,1.55
2023-01-20T07:17:03.877Z,1.55
2023-01-20T07:18:03.432Z,1.56
2023-01-20T07:19:03.560Z,1.56
2023-01-20T07:20:03.305Z,1.60
2023-01-20T07:21:03.811Z,1.61
2023-01-20T07:22:02.504Z,1.61
2023-01-20T07:23:02.556Z,1.62
2023-01-20T07:24:02.763Z,1.58
2023-01-20T07:25:02.581Z,1.56
2023-01-20T07:26:02.958Z,1.57
2023-01-20T07:27:02.772Z,1.57
2023-01-20T07:28:02.983Z,1.52
2023-01-20T07:29:02.806Z,1.51
2023-01-20T07:30:02.903Z,1.52
2023-01-20T07:31:03.022Z,1.51
2023-01-20T07:32:03.013Z,1.51
2023-01-20T07:33:02.555Z,1.53
2023-01-20T07:34:02.601Z,1.54
2023-01-20T07:35:03.025Z,1.57
2023-01-20T07:36:02.974Z,1.58
2023-01-20T07:37:02.702Z,1.58
2023-01-20T07:38:02.874Z,1.57
2023-01-20T07:39:02.696Z,1.55
2023-01-20T07:40:03.159Z,1.55
2023-01-20T07:41:04.961Z,1.60
2023-01-20T07:42:03.069Z,1.61
2023-01-20T07:43:03.594Z,1.64
2023-01-20T07:44:03.223Z,1.61
2023-01-20T07:45:03.029Z,1.61
2023-01-20T07:46:03.361Z,1.62
2023-01-20T07:47:02.522Z,1.60
2023-01-20T07:48:02.270Z,1.62
2023-01-20T07:49:03.107Z,1.61
2023-01-20T07:50:02.778Z,1.63
2023-01-20T07:51:02.523Z,1.56
2023-01-20T07:52:03.497Z,1.56
2023-01-20T07:53:03.056Z,1.55
2023-01-20T07:54:03.202Z,1.52
2023-01-20T07:55:03.128Z,1.53
2023-01-20T07:56:03.048Z,1.51
2023-01-20T07:57:02.725Z,1.49
2023-01-20T07:58:02.611Z,1.45
2023-01-20T07:59:03.160Z,1.43
2023-01-20T08:00:02.820Z,1.39
2023-01-20T08:01:02.872Z,1.39
2023-01-20T08:02:01.986Z,1.39
2023-01-20T08:03:02.247Z,1.35
2023-01-20T08:04:01.785Z,1.28
2023-01-20T08:05:01.805Z,1.24
2023-01-20T08:06:01.941Z,1.21
2023-01-20T08:07:02.746Z,1.21
2023-01-20T08:08:02.452Z,1.21
2023-01-20T08:09:02.767Z,1.19
2023-01-20T08:10:02.462Z,1.18
2023-01-20T08:11:02.343Z,1.17
2023-01-20T08:12:01.888Z,1.15
2023-01-20T08:13:02.143Z,1.15
2023-01-20T08:14:01.848Z,1.17
2023-01-20T08:15:01.807Z,1.18
2023-01-20T08:16:01.638Z,1.17
2023-01-20T08:17:02.194Z,1.17
2023-01-20T08:18:01.954Z,1.14
2023-01-20T08:19:01.999Z,1.12
2023-01-20T08:20:01.879Z,1.13
2023-01-20T08:21:02.344Z,1.14
2023-01-20T08:22:02.512Z,1.18
2023-01-20T08:23:02.524Z,1.20
2023-01-20T08:24:02.437Z,1.22
2023-01-20T08:25:02.498Z,1.26
2023-01-20T08:26:02.440Z,1.29
2023-01-20T08:27:02.374Z,1.30
2023-01-20T08:28:03.842Z,1.31
2023-01-20T08:29:02.182Z,1.33
2023-01-20T08:30:02.025Z,1.34
2023-01-20T08:31:02.693Z,1.30
2023-01-20T08:32:02.429Z,1.27
2023-01-20T08:33:02.747Z,1.26
2023-01-20T08:34:02.648Z,1.25
2023-01-20T08:35:02.575Z,1.26
2023-01-20T08:36:02.363Z,1.31
2023-01-20T08:37:02.575Z,1.35
2023-01-20T08:38:02.427Z,1.36
2023-01-20T08:39:02.355Z,1.40
2023-01-20T08:40:02.445Z,1.44
2023-01-20T08:41:02.348Z,1.45
2023-01-20T08:42:02.133Z,1.43
2023-01-20T08:43:02.022Z,1.42
2023-01-20T08:44:02.115Z,1.43
2023-01-20T08:45:02.051Z,1.42
2023-01-20T08:46:01.895Z,1.42
2023-01-20T08:47:02.580Z,1.44
2023-01-20T08:48:02.278Z,1.46
2023-01-20T08:49:02.090Z,1.48
2023-01-20T08:50:01.891Z,1.49
2023-01-20T08:51:02.386Z,1.51
2023-01-20T08:52:02.516Z,1.52
2023-01-20T08:53:02.500Z,1.53
2023-01-20T08:54:02.229Z,1.54
2023-01-20T08:55:02.170Z,1.52
2023-01-20T08:56:02.708Z,1.53
2023-01-20T08:57:02.393Z,1.53
2023-01-20T08:58:01.787Z,1.57
2023-01-20T08:59:02.190Z,1.60
2023-01-20T09:00:01.833Z,1.60
2023-01-20T09:01:02.185Z,1.59
2023-01-20T09:02:02.143Z,1.60
2023-01-20T09:03:02.275Z,1.60
2023-01-20T09:04:06.170Z,1.61
2023-01-20T09:05:01.791Z,1.62
2023-01-20T09:06:02.200Z,1.59
2023-01-20T09:07:02.820Z,1.55
2023-01-20T09:08:02.853Z,1.52
2023-01-20T09:09:04.482Z,1.50
2023-01-20T09:10:02.354Z,1.52
2023-01-20T09:11:02.881Z,1.54
2023-01-20T09:12:02.790Z,1.55
2023-01-20T09:13:02.940Z,1.53
2023-01-20T09:14:02.780Z,1.51
2023-01-20T09:15:04.937Z,1.54
2023-01-20T09:16:02.912Z,1.52
2023-01-20T09:17:02.403Z,1.50
2023-01-20T09:18:02.540Z,1.51
2023-01-20T09:19:02.009Z,1.53
2023-01-20T09:20:02.249Z,1.56
2023-01-20T09:21:02.548Z,1.55
2023-01-20T09:22:02.028Z,1.53
2023-01-20T09:23:02.036Z,1.54
2023-01-20T09:24:01.733Z,1.53
2023-01-20T09:25:01.623Z,1.51
2023-01-20T09:26:02.082Z,1.46
2023-01-20T09:27:02.458Z,1.46
2023-01-20T09:28:02.409Z,1.46
2023-01-20T09:29:02.097Z,1.48
2023-01-20T09:30:02.422Z,1.48
2023-01-20T09:31:02.245Z,1.49
2023-01-20T09:32:02.849Z,1.46
2023-01-20T09:33:02.261Z,1.46
2023-01-20T09:34:02.581Z,1.48
2023-01-20T09:35:02.754Z,1.51
2023-01-20T09:36:03.056Z,1.53
2023-01-20T09:37:02.376Z,1.54
2023-01-20T09:38:02.265Z,1.58
2023-01-20T09:39:02.170Z,1.66
2023-01-20T09:40:02.231Z,1.74
2023-01-20T09:41:01.982Z,1.81
2023-01-20T09:42:02.946Z,1.88
2023-01-20T09:43:02.476Z,1.93
2023-01-20T09:44:02.402Z,1.99
2023-01-20T09:45:02.714Z,2.06
2023-01-20T09:46:02.621Z,2.14
2023-01-20T09:47:01.918Z,2.19
2023-01-20T09:48:02.349Z,2.27
2023-01-20T09:49:01.955Z,2.34
2023-01-20T09:50:02.269Z,2.34
2023-01-20T09:51:01.841Z,2.38
2023-01-20T09:52:02.307Z,2.43
2023-01-20T09:53:02.043Z,2.47
2023-01-20T09:54:02.370Z,2.52
2023-01-20T09:55:02.321Z,2.59
2023-01-20T09:56:02.183Z,2.60
2023-01-20T09:57:02.222Z,2.58
2023-01-20T09:58:02.683Z,2.61
2023-01-20T09:59:02.548Z,2.62
2023-01-20T10:00:02.520Z,2.63
2023-01-20T10:01:02.445Z,2.62
2023-01-20T10:02:03.297Z,2.63
2023-01-20T10:03:02.995Z,2.65
2023-01-20T10:04:04.841Z,2.70
2023-01-20T10:05:02.652Z,2.71
2023-01-20T10:06:03.194Z,2.74
2023-01-20T10:07:03.610Z,2.83
2023-01-20T10:08:03.344Z,2.89
2023-01-20T10:09:06.292Z,2.89
2023-01-20T10:10:03.503Z,2.94
2023-01-20T10:11:03.375Z,3.00
2023-01-20T10:12:03.327Z,2.99
2023-01-20T10:13:03.538Z,3.09
2023-01-20T10:14:03.520Z,3.15
2023-01-20T10:15:03.516Z,3.13
2023-01-20T10:16:03.632Z,3.20
2023-01-20T10:17:02.722Z,3.12
2023-01-20T10:18:02.705Z,3.11
2023-01-20T10:19:02.573Z,3.03
2023-01-20T10:20:02.556Z,3.06
2023-01-20T10:21:02.646Z,3.07
2023-01-20T10:22:02.933Z,3.13
2023-01-20T10:23:03.484Z,3.10
2023-01-20T10:24:03.329Z,3.11
2023-01-20T10:25:03.124Z,3.16
2023-01-20T10:26:03.377Z,3.19
2023-01-20T10:27:02.312Z,3.19
2023-01-20T10:28:02.238Z,3.17
2023-01-20T10:29:02.639Z,3.14
2023-01-20T10:30:02.527Z,3.17
2023-01-20T10:31:02.747Z,3.19
2023-01-20T10:32:02.459Z,3.14
2023-01-20T10:33:03.020Z,3.06
2023-01-20T10:34:02.618Z,3.01
2023-01-20T10:35:02.965Z,2.99
2023-01-20T10:36:02.638Z,3.03
2023-01-20T10:37:03.064Z,2.98
2023-01-20T10:38:03.018Z,2.97
2023-01-20T10:39:03.514Z,2.98
2023-01-20T10:40:03.230Z,2.96
2023-01-20T10:41:03.477Z,2.95
2023-01-20T10:42:02.266Z,3.01
2023-01-20T10:43:02.209Z,3.05
2023-01-20T10:44:02.515Z,3.10
2023-01-20T10:45:02.564Z,3.07
2023-01-20T10:46:02.715Z,3.04
2023-01-20T10:47:02.292Z,3.10
2023-01-20T10:48:02.583Z,3.10
2023-01-20T10:49:02.535Z,3.01
2023-01-20T10:50:02.670Z,2.93
2023-01-20T10:51:02.569Z,2.91
2023-01-20T10:52:02.638Z,2.93
2023-01-20T10:53:03.538Z,2.97
2023-01-20T10:54:02.796Z,2.88
2023-01-20T10:55:02.663Z,2.82
2023-01-20T10:56:03.061Z,2.88
2023-01-20T10:57:02.135Z,2.91
2023-01-20T10:58:02.278Z,2.87
2023-01-20T10:59:02.396Z,2.85
2023-01-20T11:00:02.284Z,2.90
2023-01-20T11:01:02.179Z,2.81
2023-01-20T11:02:11.901Z,2.76
2023-01-20T11:03:03.325Z,2.65
2023-01-20T11:04:03.089Z,2.64
2023-01-20T11:05:02.631Z,2.53
2023-01-20T11:06:02.683Z,2.49
2023-01-20T11:07:02.773Z,2.40
2023-01-20T11:08:02.293Z,2.37
2023-01-20T11:09:02.848Z,2.34
2023-01-20T11:10:02.247Z,2.29
2023-01-20T11:11:02.731Z,2.33
2023-01-20T11:12:02.546Z,2.38
2023-01-20T11:13:02.576Z,2.40
2023-01-20T11:14:02.450Z,2.38
2023-01-20T11:15:03.002Z,2.45
2023-01-20T11:16:03.042Z,2.49
2023-01-20T11:17:02.952Z,2.45
2023-01-20T11:18:02.926Z,2.46
2023-01-20T11:19:02.874Z,2.47
2023-01-20T11:20:02.616Z,2.53
2023-01-20T11:21:03.135Z,2.51
2023-01-20T11:22:02.363Z,2.52
2023-01-20T11:23:02.306Z,2.58
2023-01-20T11:24:02.512Z,2.57
2023-01-20T11:25:02.680Z,2.60
2023-01-20T11:26:02.690Z,2.64
2023-01-20T11:27:02.770Z,2.64
2023-01-20T11:28:02.980Z,2.49
2023-01-20T11:29:02.878Z,2.41
2023-01-20T11:30:02.640Z,2.45
2023-01-20T11:31:02.740Z,2.48
2023-01-20T11:32:02.713Z,2.54
2023-01-20T11:33:02.687Z,2.60
2023-01-20T11:34:02.840Z,2.61
2023-01-20T11:35:02.637Z,2.58
2023-01-20T11:36:02.531Z,2.55
2023-01-20T11:37:02.236Z,2.55
2023-01-20T11:38:02.418Z,2.51
2023-01-20T11:39:02.315Z,2.55
2023-01-20T11:40:02.388Z,2.62
2023-01-20T11:41:02.069Z,2.58
2023-01-20T11:42:02.519Z,2.56
2023-01-20T11:43:02.209Z,2.50
2023-01-20T11:44:02.640Z,2.41
2023-01-20T11:45:21.635Z,2.35
2023-01-20T11:46:02.188Z,2.28
2023-01-20T11:47:02.948Z,2.19
2023-01-20T11:48:03.140Z,2.14
2023-01-20T11:49:02.711Z,2.10
2023-01-20T11:50:02.603Z,2.10
2023-01-20T11:51:03.156Z,2.08
2023-01-20T11:52:03.171Z,2.11
2023-01-20T11:53:03.258Z,2.15
2023-01-20T11:54:03.190Z,2.18
2023-01-20T11:55:03.091Z,2.15
2023-01-20T11:56:02.948Z,2.22
2023-01-20T11:57:02.784Z,2.18
2023-01-20T11:58:02.777Z,2.16
2023-01-20T11:59:02.571Z,2.20
2023-01-20T12:00:02.573Z,2.14
2023-01-20T12:01:02.903Z,2.14
2023-01-20T12:02:03.242Z,2.13
2023-01-20T12:03:02.837Z,2.15
2023-01-20T12:04:03.357Z,2.21
2023-01-20T12:05:03.273Z,2.20
2023-01-20T12:06:02.954Z,2.20
2023-01-20T12:07:03.535Z,2.25
2023-01-20T12:08:03.484Z,2.23
2023-01-20T12:09:03.492Z,2.23
2023-01-20T12:10:03.720Z,2.24
2023-01-20T12:11:03.436Z,2.25
2023-01-20T12:12:03.267Z,2.25
2023-01-20T12:13:02.948Z,2.24
2023-01-20T12:14:03.163Z,2.28
2023-01-20T12:15:02.896Z,2.27
2023-01-20T12:16:03.717Z,2.26
2023-01-20T12:17:03.274Z,2.20
2023-01-20T12:18:02.836Z,2.15
2023-01-20T12:19:03.397Z,2.18
2023-01-20T12:20:03.338Z,2.19
2023-01-20T12:21:02.789Z,2.21
2023-01-20T12:22:03.350Z,2.24
2023-01-20T12:23:03.224Z,2.19
2023-01-20T12:24:03.347Z,2.23
2023-01-20T12:25:03.093Z,2.26
2023-01-20T12:26:02.976Z,2.28
2023-01-20T12:27:03.522Z,2.31
2023-01-20T12:28:03.415Z,2.30
2023-01-20T12:29:03.586Z,2.25
2023-01-20T12:30:03.718Z,2.28
2023-01-20T12:31:03.479Z,2.29
2023-01-20T12:32:02.967Z,2.28
2023-01-20T12:33:02.812Z,2.23
2023-01-20T12:34:02.675Z,2.26
2023-01-20T12:35:03.245Z,2.30
2023-01-20T12:36:03.058Z,2.30
2023-01-20T12:37:03.556Z,2.30
2023-01-20T12:38:03.472Z,2.23
2023-01-20T12:39:03.098Z,2.13
2023-01-20T12:40:03.417Z,2.07
2023-01-20T12:41:03.574Z,2.06
2023-01-20T12:42:03.196Z,2.11
2023-01-20T12:43:02.674Z,2.13
2023-01-20T12:44:02.559Z,2.07
2023-01-20T12:45:03.174Z,2.07
2023-01-20T12:46:03.048Z,2.09
2023-01-20T12:47:03.527Z,2.08
2023-01-20T12:48:03.558Z,2.12
2023-01-20T12:49:03.385Z,2.18
2023-01-20T12:50:03.147Z,2.21
2023-01-20T12:51:03.341Z,2.24
2023-01-20T12:52:02.959Z,2.28
2023-01-20T12:53:02.679Z,2.27
2023-01-20T12:54:02.642Z,2.28
2023-01-20T12:55:02.765Z,2.28
2023-01-20T12:56:02.396Z,2.32
2023-01-20T12:57:03.132Z,2.37
2023-01-20T12:58:03.006Z,2.40
2023-01-20T12:59:03.141Z,2.40
2023-01-20T13:00:02.775Z,2.38
2023-01-20T13:01:02.724Z,2.37
2023-01-20T13:02:01.844Z,2.39
2023-01-20T13:03:02.310Z,2.39
2023-01-20T13:04:01.898Z,2.39
2023-01-20T13:05:02.007Z,2.40
2023-01-20T13:06:01.841Z,2.42
2023-01-20T13:07:02.484Z,2.44
2023-01-20T13:08:01.748Z,2.47
2023-01-20T13:09:01.950Z,2.49
2023-01-20T13:10:01.887Z,2.50
2023-01-20T13:11:01.475Z,2.52
2023-01-20T13:12:01.627Z,2.53
2023-01-20T13:13:02.020Z,2.55
2023-01-20T13:14:01.912Z,2.53
2023-01-20T13:15:02.244Z,2.62
2023-01-20T13:16:02.379Z,2.69
2023-01-20T13:17:02.162Z,2.69
2023-01-20T13:18:02.794Z,2.69